Flight Track Log - Related Links

Times and Time Zones

All times are in EDT time to prevent confusion due to time zone crossing. See the JBU917 flight status page for this flight to view local times or setup timezone preferences in your user account.

Time Position Orientation Groundspeed Altitude Reporting Facility
EDT Latitude Longitude Course Direction KTS MPH feet Rate Location/Type
Sun 05:10:27 PM 40.5833 -73.8167 323° Northwest 183 211 1,700  Level New York TRACON
Sun 05:11:27 PM 40.5333 -73.8000 166° South 257 296 3,800 2,800 Climbing New York TRACON
Sun 05:12:00 PM 40.7959 -74.0750 304° West  Level FlightAware Approximate
Sun 05:12:27 PM 40.5500 -73.7000 78° East 259 298 7,300  Level New York TRACON
Sun 05:13:00 PM 40.8502 -74.1836 303° West  Level FlightAware Approximate
Sun 05:13:27 PM 40.5833 -73.6167 62° Northeast 278 320 10,000  Level New York TRACON
Sun 05:14:00 PM 40.9069 -74.2902 306° West  Level FlightAware Approximate
Sun 05:14:27 PM 40.6667 -73.5500 31° Northeast 326 375 11,600  Level New York TRACON
Sun 05:15:00 PM 40.9645 -74.3960 306° West  Level FlightAware Approximate
Sun 05:15:21 PM 40.7333 -73.5500 360° North 347 399 13,800  Level New York TRACON
Sun 05:16:00 PM 41.0275 -74.4942 323° Northwest  Level FlightAware Approximate
Sun 05:16:21 PM 40.8333 -73.5667 353° North 353 406 16,300  Level New York TRACON
Sun 05:17:21 PM 40.9333 -73.6000 346° North 383 441 17,000 350 Climbing New York TRACON
Sun 05:18:21 PM 40.9833 -73.7167 300° West 368 423 17,000  Level New York TRACON
Sun 05:19:21 PM 41.0167 -73.8500 288° West 361 415 17,000  Level New York TRACON
Sun 05:20:21 PM 41.0333 -73.9833 279° West 360 414 17,000  Level New York TRACON
Sun 05:21:21 PM 41.0500 -74.1167 279° West 362 417 17,000  Level New York TRACON
Sun 05:23:27 PM 41.0939 -74.3833 282° West 378 435 17,000  Level New York Center
Sun 05:24:28 PM 41.1125 -74.5164 281° West 372 428 17,000  Level New York Center
Sun 05:25:28 PM 41.1292 -74.6467 280° West 367 422 17,000 400 Level New York Center
Sun 05:26:28 PM 41.1631 -74.7561 292° West 367 422 17,800 1,587 Climbing New York Center
Sun 05:27:29 PM 41.2189 -74.8864 300° West 359 413 20,200 2,132 Climbing New York Center
Sun 05:28:29 PM 41.2653 -74.9914 300° West 370 426 22,100 1,785 Climbing New York Center
Sun 05:29:30 PM 41.3153 -75.1106 299° West 370 426 23,800 1,831 Climbing New York Center
Sun 05:30:27 PM 41.3669 -75.2325 299° West 375 432 25,700 1,692 Climbing New York Center
Sun 05:31:27 PM 41.4206 -75.3553 300° West 381 438 27,100 1,140 Climbing New York Center
Sun 05:32:28 PM 41.4739 -75.4833 299° West 386 444 28,000 443 Climbing New York Center
Sun 05:33:29 PM 41.5122 -75.6164 291° West 386 444 28,000  Level New York Center
Sun 05:34:27 PM 41.5525 -75.7494 292° West 386 444 28,000  Level New York Center
Sun 05:35:28 PM 41.5925 -75.8828 292° West 386 444 28,000  Level New York Center
Sun 05:36:29 PM 41.6281 -76.0217 289° West 391 450 28,000 541 Level New York Center
Sun 05:37:30 PM 41.6681 -76.1553 292° West 391 450 29,100 1,424 Climbing New York Center
Sun 05:38:27 PM 41.7056 -76.2917 290° West 396 456 30,800 1,525 Climbing New York Center
Sun 05:39:28 PM 41.7408 -76.4253 290° West 396 456 32,100 1,041 Climbing New York Center
Sun 05:40:28 PM 41.7817 -76.5733 290° West 396 456 32,900 1,038 Climbing New York Center
Sun 05:42:04 PM 41.8433 -76.7922 291° West 398 458 34,800 1,038 Climbing Cleveland Center
Sun 05:43:04 PM 41.8811 -76.9267 291° West 398 458 35,600 850 Climbing Cleveland Center
Sun 05:44:04 PM 41.9164 -77.0558 290° West 387 445 36,500 650 Climbing Cleveland Center
Sun 05:45:04 PM 41.9539 -77.1933 290° West 382 440 36,900 450 Climbing Cleveland Center
Sun 05:46:04 PM 41.9889 -77.3256 290° West 382 440 37,400 450 Climbing Cleveland Center
Sun 05:47:04 PM 42.0261 -77.4608 290° West 382 440 37,800 300 Climbing Cleveland Center
Sun 05:48:04 PM 42.0631 -77.5989 290° West 387 445 38,000 100 Climbing Cleveland Center
Sun 05:49:04 PM 42.1000 -77.7397 290° West 392 451 38,000  Level Cleveland Center
Sun 05:50:04 PM 42.1367 -77.8783 290° West 398 458 38,000  Level Cleveland Center
Sun 05:51:04 PM 42.1733 -78.0194 289° West 404 465 38,000  Level Cleveland Center
Sun 05:52:04 PM 42.2097 -78.1611 289° West 404 465 38,000  Level Cleveland Center
Sun 05:53:04 PM 42.2481 -78.3028 290° West 404 465 38,000  Level Cleveland Center
Sun 05:54:04 PM 42.2842 -78.4444 289° West 404 465 38,000  Level Cleveland Center
Sun 05:55:04 PM 42.3200 -78.5867 289° West 404 465 38,000  Level Cleveland Center
Sun 05:56:04 PM 42.3556 -78.7258 289° West 404 465 38,000  Level Cleveland Center
Sun 05:57:04 PM 42.3911 -78.8711 288° West 403 464 38,000  Level Cleveland Center
Sun 05:58:04 PM 42.4244 -79.0136 288° West 403 464 38,000  Level Cleveland Center
Sun 05:59:04 PM 42.4639 -79.1592 290° West 403 464 38,000  Level Cleveland Center
Sun 06:00:04 PM 42.4928 -79.3019 285° West 403 464 38,000  Level Cleveland Center
Sun 06:01:04 PM 42.5025 -79.4511 275° West 403 464 38,000  Level Cleveland Center
Sun 06:02:04 PM 42.5081 -79.6003 273° West 398 458 38,000  Level Cleveland Center
Sun 06:03:04 PM 42.5156 -79.7467 274° West 398 458 38,000  Level Cleveland Center
Sun 06:04:04 PM 42.5250 -79.8958 275° West 398 458 38,000  Level Cleveland Center
Sun 06:05:04 PM 42.5256 -80.0450 270° West 403 464 38,000  Level Cleveland Center
Sun 06:06:04 PM 42.5325 -80.1944 274° West 403 464 38,000  Level Cleveland Center
Sun 06:07:04 PM 42.5369 -80.3436 272° West 403 464 38,000  Level Cleveland Center
Sun 06:08:04 PM 42.5436 -80.4931 274° West 403 464 38,000  Level Cleveland Center
Sun 06:09:04 PM 42.5497 -80.6422 273° West 396 456 38,000  Level Cleveland Center
Sun 06:10:04 PM 42.5558 -80.7889 273° West 396 456 38,000  Level Cleveland Center
Sun 06:11:04 PM 42.5617 -80.9383 273° West 401 461 38,000  Level Cleveland Center
Sun 06:12:04 PM 42.5675 -81.0878 273° West 401 461 38,000  Level Cleveland Center
Sun 06:13:04 PM 42.5731 -81.2344 273° West 401 461 38,000  Level Cleveland Center
Sun 06:14:04 PM 42.5761 -81.3867 272° West 401 461 38,000  Level Cleveland Center
Sun 06:15:04 PM 42.5958 -81.5308 281° West 401 461 38,000  Level Cleveland Center
Sun 06:16:04 PM 42.6217 -81.6808 283° West 401 461 38,000  Level Cleveland Center
Sun 06:17:04 PM 42.6453 -81.8081 284° West 401 461 38,000  Level Cleveland Center
Sun 06:18:04 PM 42.6708 -81.9556 283° West 395 455 38,000  Level Cleveland Center
Sun 06:19:04 PM 42.6961 -82.1031 283° West 395 455 38,000  Level Cleveland Center
Sun 06:20:04 PM 42.7211 -82.2533 283° West 395 455 38,000  Level Cleveland Center
Sun 06:21:04 PM 42.7458 -82.4039 283° West 395 455 38,000  Level Cleveland Center
Sun 06:22:04 PM 42.7706 -82.5517 283° West 395 455 38,000  Level Cleveland Center
Sun 06:23:04 PM 42.7972 -82.7025 284° West 401 461 38,000  Level Cleveland Center
Sun 06:24:04 PM 42.8214 -82.8533 282° West 406 467 38,000  Level Cleveland Center
Sun 06:25:04 PM 42.8475 -83.0044 283° West 412 474 38,000 -400 Level Cleveland Center
Sun 06:26:04 PM 42.8711 -83.1556 282° West 412 474 37,200 -900 Descending Cleveland Center
Sun 06:27:04 PM 42.8950 -83.3011 283° West 412 474 36,200 -1,000 Descending Cleveland Center
Sun 06:28:04 PM 42.9183 -83.4522 282° West 412 474 35,200 -1,000 Descending Cleveland Center
Sun 06:29:04 PM 42.9417 -83.6039 282° West 412 474 34,200 -950 Descending Cleveland Center
Sun 06:30:04 PM 42.9625 -83.7553 281° West 412 474 33,300 -950 Descending Cleveland Center
Sun 06:31:04 PM 42.9522 -83.9050 265° West 412 474 32,300 -650 Descending Cleveland Center
Sun 06:32:04 PM 42.9372 -84.0544 262° West 400 460 32,000 -88 Descending Cleveland Center
Sun 06:34:29 PM 42.9019 -84.4125 262° West 402 463 32,000  Level Chicago Center
Sun 06:35:31 PM 42.8856 -84.5631 262° West 401 461 32,000  Level Chicago Center
Sun 06:36:33 PM 42.8703 -84.7142 262° West 404 465 32,000  Level Chicago Center
Sun 06:37:35 PM 42.8517 -84.8969 262° West 407 468 32,000  Level Chicago Center
Sun 06:38:37 PM 42.8347 -85.0481 261° West 404 465 32,000 -339 Level Chicago Center
Sun 06:39:39 PM 42.8186 -85.1981 262° West 402 463 31,300 -823 Descending Chicago Center
Sun 06:40:41 PM 42.8022 -85.3517 262° West 407 468 30,300 -629 Descending Chicago Center
Sun 06:41:43 PM 42.7853 -85.5039 261° West 406 467 30,000 -145 Descending Chicago Center
Sun 06:42:45 PM 42.7589 -85.6550 257° West 408 470 30,000 -823 Level Chicago Center
Sun 06:43:47 PM 42.7308 -85.8056 256° West 409 471 28,300 -2,323 Descending Chicago Center
Sun 06:44:49 PM 42.6989 -85.9842 256° West 404 465 25,200 -2,758 Descending Chicago Center
Sun 06:45:51 PM 42.6725 -86.1303 256° West 398 458 22,600 -2,468 Descending Chicago Center
Sun 06:46:53 PM 42.6464 -86.2706 256° West 387 445 20,100 -1,355 Descending Chicago Center
Sun 06:47:55 PM 42.6200 -86.4031 255° West 366 421 19,800 -290 Descending Chicago Center
Sun 06:48:57 PM 42.5942 -86.5406 256° West 373 429 19,500 -823 Descending Chicago Center
Sun 06:49:59 PM 42.5689 -86.6750 256° West 369 425 18,100 -1,790 Descending Chicago Center
Sun 06:51:01 PM 42.5411 -86.8092 254° West 370 426 15,800 -2,516 Descending Chicago Center
Sun 06:52:03 PM 42.4994 -86.9544 249° West 354 407 12,900 -2,613 Descending Chicago Center
Sun 06:53:05 PM 42.4656 -87.0708 248° West 338 389 10,400 -1,403 Descending Chicago Center
Sun 06:54:07 PM 42.4350 -87.1853 250° West 328 377 10,000 -677 Descending Chicago Center
Sun 06:55:09 PM 42.4083 -87.2789 249° West 273 314 9,000 -484 Descending Chicago Center
Sun 06:56:11 PM 42.3828 -87.3733 250° West 267 307 9,000  Level Chicago Center
Sun 06:57:13 PM 42.3414 -87.4581 237° Southwest 266 306 9,000 -387 Level Chicago Center
Sun 06:58:15 PM 42.2903 -87.5558 235° Southwest 267 307 8,200 -968 Descending Chicago Center
Sun 06:59:17 PM 42.2425 -87.6247 227° Southwest 257 296 7,000 -1,355 Descending Chicago Center
Sun 07:00:19 PM 42.1828 -87.6914 220° Southwest 261 300 5,400 -1,210 Descending Chicago Center
Sun 07:01:21 PM 42.1381 -87.7431 221° Southwest 242 278 4,500 -1,063 Descending Chicago Center
Sun 07:01:55 PM 42.1000 -87.7667 205° Southwest 206 237 3,700 -1,200 Descending Chicago TRACON
Sun 07:02:56 PM 42.0667 -87.8167 228° Southwest 188 216 2,600 -1,041 Descending Chicago TRACON
Sun 07:03:56 PM 42.0333 -87.8500 217° Southwest 145 167 1,600 -850 Descending Chicago TRACON
Sun 07:04:56 PM 42.0000 -87.8833 217° Southwest 128 147 900 -700 Descending Chicago TRACON
Sun 07:06:00 PM 41.9817 -87.9067 217° Southwest  Level Estimated

Login

Don't have an account? Register now (free) for customized features, flight alerts, and more!